Time;durP1;ratioP1;P1;durP2;ratioP2;P2;SDS_P1;SDS_P2;PMS_P1;PMS_P2;Temp;Humidity;BMP_temperature;BMP_pressure;BME280_temperature;BME280_humidity;BME280_pressure;Samples;Min_cycle;Max_cycle;Signal;HPM_P1;HPM_P2
2023/12/23 00:01:30;;;;;;;0.08;0.08;;;23.60;53.80;;;;;;5073313;28;20199;-52
2023/12/23 00:04:01;;;;;;;0.00;0.00;;;23.60;53.70;;;;;;5072884;28;20547;-48
2023/12/23 00:06:31;;;;;;;0.10;0.10;;;23.60;53.70;;;;;;5072910;28;20198;-51
2023/12/23 00:09:04;;;;;;;0.10;0.10;;;23.70;53.80;;;;;;5072846;28;20191;-44
2023/12/23 00:11:35;;;;;;;0.10;0.10;;;23.60;53.70;;;;;;5072805;28;20223;-47
2023/12/23 00:14:05;;;;;;;0.00;0.00;;;23.70;53.80;;;;;;5072131;28;20655;-46
2023/12/23 00:16:36;;;;;;;0.10;0.10;;;23.70;53.80;;;;;;5072783;28;20202;-45
2023/12/23 00:19:09;;;;;;;0.00;0.00;;;23.70;53.80;;;;;;5072680;28;20202;-44
2023/12/23 00:21:39;;;;;;;0.00;0.00;;;23.70;53.80;;;;;;5072690;28;20218;-44
2023/12/23 00:24:12;;;;;;;0.00;0.00;;;23.80;53.80;;;;;;5072532;28;20202;-44
2023/12/23 00:26:43;;;;;;;0.00;0.00;;;23.80;53.80;;;;;;5071930;28;20194;-48
2023/12/23 00:29:13;;;;;;;0.00;0.00;;;23.80;53.80;;;;;;5072705;28;20198;-46
2023/12/23 00:31:44;;;;;;;0.00;0.00;;;23.80;53.80;;;;;;5072169;28;20248;-48
2023/12/23 00:34:15;;;;;;;0.00;0.00;;;23.80;53.70;;;;;;5072022;28;20205;-45
2023/12/23 00:36:45;;;;;;;0.00;0.00;;;23.90;53.70;;;;;;5071972;28;20198;-46
2023/12/23 00:39:18;;;;;;;0.00;0.00;;;23.90;53.70;;;;;;5071920;28;20201;-46
2023/12/23 00:41:49;;;;;;;0.10;0.10;;;23.90;53.60;;;;;;5071911;28;20202;-46
2023/12/23 00:44:20;;;;;;;0.00;0.00;;;23.90;53.50;;;;;;5071702;28;20195;-49
2023/12/23 00:46:50;;;;;;;0.00;0.00;;;23.90;53.50;;;;;;5071851;28;20191;-45
2023/12/23 00:49:21;;;;;;;0.00;0.00;;;23.90;53.50;;;;;;5071919;28;20221;-44
2023/12/23 00:51:52;;;;;;;0.00;0.00;;;23.90;53.50;;;;;;5051903;28;20223;-44
2023/12/23 00:54:25;;;;;;;0.00;0.00;;;23.90;53.50;;;;;;5051818;28;20286;-44
2023/12/23 00:56:55;;;;;;;0.00;0.00;;;24.00;53.60;;;;;;5068003;28;20190;-46
2023/12/23 00:59:26;;;;;;;0.00;0.00;;;24.00;53.60;;;;;;5071324;28;20689;-47
2023/12/23 01:01:57;;;;;;;0.00;0.00;;;24.00;53.60;;;;;;5071485;28;20199;-45
2023/12/23 01:04:27;;;;;;;0.03;0.03;;;24.00;53.70;;;;;;5071702;28;20567;-43
2023/12/23 01:06:58;;;;;;;0.00;0.00;;;24.00;53.70;;;;;;5071945;28;20199;-45
2023/12/23 01:09:31;;;;;;;0.00;0.00;;;24.00;53.70;;;;;;5071830;28;20205;-43
2023/12/23 01:12:02;;;;;;;0.03;0.03;;;24.00;53.70;;;;;;5071806;28;20625;-46
2023/12/23 01:14:32;;;;;;;0.00;0.00;;;24.00;53.70;;;;;;5071768;28;20215;-44
2023/12/23 01:17:03;;;;;;;0.00;0.00;;;24.00;53.80;;;;;;5072137;28;20312;-45
2023/12/23 01:19:34;;;;;;;0.00;0.00;;;24.00;53.70;;;;;;5071854;28;20199;-46
2023/12/23 01:22:04;;;;;;;0.08;0.08;;;24.00;53.90;;;;;;5071797;28;20567;-46
2023/12/23 01:24:37;;;;;;;0.00;0.00;;;24.00;53.80;;;;;;5071487;28;20222;-45
2023/12/23 01:27:08;;;;;;;0.00;0.00;;;24.00;53.80;;;;;;5071155;28;20202;-46
2023/12/23 01:29:39;;;;;;;0.00;0.00;;;24.10;53.90;;;;;;5071548;28;20695;-44
2023/12/23 01:32:11;;;;;;;0.00;0.00;;;24.10;53.80;;;;;;5071415;28;20577;-45
2023/12/23 01:34:42;;;;;;;0.00;0.00;;;24.10;53.80;;;;;;5071250;28;20218;-46
2023/12/23 01:37:13;;;;;;;0.00;0.00;;;24.10;53.80;;;;;;5071416;28;20315;-46
2023/12/23 01:39:47;;;;;;;0.00;0.00;;;24.10;53.90;;;;;;5071736;28;20195;-43
2023/12/23 01:42:18;;;;;;;0.00;0.00;;;24.10;53.90;;;;;;5072258;28;20242;-45
2023/12/23 01:44:50;;;;;;;0.00;0.00;;;24.20;54.00;;;;;;5071542;28;20331;-45
2023/12/23 01:47:21;;;;;;;0.00;0.00;;;24.10;53.90;;;;;;5071151;28;20197;-45
2023/12/23 01:49:53;;;;;;;0.00;0.00;;;24.20;54.00;;;;;;5071208;28;20550;-44
2023/12/23 01:52:24;;;;;;;0.00;0.00;;;24.20;54.00;;;;;;5071238;28;20583;-47
2023/12/23 01:54:58;;;;;;;0.00;0.00;;;24.20;54.00;;;;;;5072368;28;20210;-46
2023/12/23 01:57:29;;;;;;;0.00;0.00;;;24.20;54.00;;;;;;5075352;28;20265;-45
2023/12/23 02:00:01;;;;;;;0.10;0.10;;;24.20;54.00;;;;;;5075388;28;20260;-44
2023/12/23 02:02:38;;;;;;;0.00;0.00;;;24.20;54.10;;;;;;5075223;28;20195;-45
2023/12/23 02:05:09;;;;;;;0.00;0.00;;;24.20;54.00;;;;;;5074952;28;20335;-45
2023/12/23 02:07:42;;;;;;;0.00;0.00;;;24.20;54.00;;;;;;5075776;28;20506;-45
2023/12/23 02:10:16;;;;;;;0.00;0.00;;;24.20;54.00;;;;;;5075063;28;20183;-44
2023/12/23 02:12:59;;;;;;;0.03;0.03;;;24.30;54.10;;;;;;5075254;28;20291;-44
2023/12/23 02:15:32;;;;;;;0.00;0.00;;;24.30;54.10;;;;;;5075388;28;20563;-45
2023/12/23 02:18:03;;;;;;;0.00;0.00;;;24.30;54.10;;;;;;5075533;28;20269;-44
2023/12/23 02:20:35;;;;;;;0.00;0.00;;;24.20;54.10;;;;;;5075050;28;20190;-43
2023/12/23 02:23:08;;;;;;;0.00;0.00;;;24.30;54.10;;;;;;5075207;28;20190;-44
2023/12/23 02:25:40;;;;;;;0.10;0.10;;;24.30;54.30;;;;;;5074447;28;20308;-46
2023/12/23 02:28:12;;;;;;;0.00;0.00;;;24.30;54.40;;;;;;5074440;28;20288;-45
2023/12/23 02:30:46;;;;;;;0.00;0.00;;;24.30;54.40;;;;;;5075191;28;20277;-44
2023/12/23 02:33:17;;;;;;;0.03;0.03;;;24.30;54.40;;;;;;5074417;28;20234;-44
2023/12/23 02:35:52;;;;;;;0.00;0.00;;;24.30;54.50;;;;;;5074136;28;20671;-45
2023/12/23 02:38:27;;;;;;;0.00;0.00;;;24.30;54.60;;;;;;5074908;28;20514;-46
2023/12/23 02:40:58;;;;;;;0.00;0.00;;;24.30;54.60;;;;;;5075099;28;20287;-46
2023/12/23 02:43:30;;;;;;;0.00;0.00;;;24.30;54.50;;;;;;5074765;28;20593;-46
2023/12/23 02:46:01;;;;;;;0.00;0.00;;;24.30;54.40;;;;;;5074633;28;20207;-47
2023/12/23 02:48:32;;;;;;;0.00;0.00;;;24.30;54.40;;;;;;5074925;28;20221;-45
2023/12/23 02:51:04;;;;;;;0.00;0.00;;;24.30;54.30;;;;;;5074699;28;20210;-46
2023/12/23 02:53:37;;;;;;;0.00;0.00;;;24.30;54.30;;;;;;5057459;28;20217;-47
2023/12/23 02:56:09;;;;;;;0.00;0.00;;;24.30;54.30;;;;;;5073769;28;20343;-44
2023/12/23 02:58:41;;;;;;;0.00;0.00;;;24.30;54.30;;;;;;5054400;28;20549;-46
2023/12/23 03:01:12;;;;;;;0.00;0.00;;;24.30;54.30;;;;;;5054138;28;20288;-45
2023/12/23 03:03:44;;;;;;;0.00;0.00;;;24.30;54.30;;;;;;5066755;28;20233;-46
2023/12/23 03:06:17;;;;;;;0.10;0.10;;;24.30;54.30;;;;;;5074149;28;20595;-49
2023/12/23 03:08:50;;;;;;;0.00;0.00;;;24.40;54.40;;;;;;5074109;28;20248;-45
2023/12/23 03:11:22;;;;;;;0.00;0.00;;;24.40;54.40;;;;;;5073398;28;20375;-45
2023/12/23 03:13:53;;;;;;;0.00;0.00;;;24.40;54.50;;;;;;5073851;28;20238;-44
2023/12/23 03:16:25;;;;;;;0.00;0.00;;;24.40;54.50;;;;;;5073563;28;20557;-45
2023/12/23 03:18:56;;;;;;;0.00;0.00;;;24.40;54.50;;;;;;5073897;28;20542;-46
2023/12/23 03:21:28;;;;;;;0.00;0.00;;;24.40;54.50;;;;;;5073579;28;20650;-46
2023/12/23 03:24:01;;;;;;;0.10;0.10;;;24.40;54.50;;;;;;5073882;28;20519;-45
2023/12/23 03:26:32;;;;;;;0.10;0.10;;;24.40;54.60;;;;;;5073773;28;20558;-45
2023/12/23 03:29:04;;;;;;;0.00;0.00;;;24.40;54.50;;;;;;5074081;28;20570;-44
2023/12/23 03:31:35;;;;;;;0.00;0.00;;;24.40;54.50;;;;;;5074180;28;20551;-48
2023/12/23 03:34:06;;;;;;;0.00;0.00;;;24.40;54.50;;;;;;5073483;28;20302;-45
2023/12/23 03:36:38;;;;;;;0.08;0.08;;;24.40;54.40;;;;;;5073660;28;20217;-44
2023/12/23 03:39:11;;;;;;;0.00;0.00;;;24.40;54.40;;;;;;5073572;28;20261;-46
2023/12/23 03:41:43;;;;;;;0.00;0.00;;;24.40;55.00;;;;;;5073453;28;20535;-45
2023/12/23 03:44:14;;;;;;;0.00;0.00;;;24.40;54.30;;;;;;5073287;28;20538;-45
2023/12/23 03:46:45;;;;;;;0.00;0.00;;;24.40;54.30;;;;;;5073484;28;20287;-46
2023/12/23 03:49:17;;;;;;;0.00;0.00;;;24.40;54.30;;;;;;5073248;28;20268;-46
2023/12/23 03:51:48;;;;;;;0.00;0.00;;;24.50;54.40;;;;;;5073165;28;20600;-44
2023/12/23 03:54:22;;;;;;;0.00;0.00;;;24.40;54.30;;;;;;5072991;28;20191;-44
2023/12/23 03:56:53;;;;;;;0.08;0.08;;;24.40;54.40;;;;;;5073143;28;20581;-45
2023/12/23 03:59:25;;;;;;;0.00;0.00;;;24.40;54.40;;;;;;5073265;28;20248;-46
2023/12/23 04:01:56;;;;;;;0.00;0.00;;;24.50;54.50;;;;;;5073320;28;20553;-46
2023/12/23 04:04:28;;;;;;;0.00;0.00;;;24.50;54.60;;;;;;5073229;28;20207;-44
2023/12/23 04:06:59;;;;;;;0.00;0.00;;;24.50;54.60;;;;;;5072523;28;20195;-46
2023/12/23 04:09:32;;;;;;;0.00;0.00;;;24.50;54.60;;;;;;5072701;28;20245;-45
2023/12/23 04:12:04;;;;;;;0.00;0.00;;;24.50;54.60;;;;;;5072100;28;20768;-45
2023/12/23 04:14:37;;;;;;;0.00;0.00;;;24.50;54.60;;;;;;5073075;28;20286;-46
2023/12/23 04:17:08;;;;;;;0.00;0.00;;;24.50;54.60;;;;;;5072394;28;20587;-46
2023/12/23 04:19:39;;;;;;;0.00;0.00;;;24.50;54.60;;;;;;5072451;28;20238;-46
2023/12/23 04:22:11;;;;;;;0.00;0.00;;;24.50;54.60;;;;;;5072717;28;20270;-42
2023/12/23 04:24:46;;;;;;;0.00;0.00;;;24.50;54.50;;;;;;5072842;28;20561;-45
2023/12/23 04:27:17;;;;;;;0.10;0.10;;;24.50;54.50;;;;;;5072910;28;20546;-45
2023/12/23 04:29:48;;;;;;;0.00;0.00;;;24.50;54.40;;;;;;5073104;28;20213;-45
2023/12/23 04:32:20;;;;;;;0.00;0.00;;;24.50;54.40;;;;;;5072520;28;20571;-43
2023/12/23 04:34:51;;;;;;;0.00;0.00;;;24.50;54.40;;;;;;5072250;28;20210;-42
2023/12/23 04:37:23;;;;;;;0.10;0.10;;;24.50;54.40;;;;;;5071797;28;20523;-43
2023/12/23 04:39:56;;;;;;;0.00;0.00;;;24.50;54.40;;;;;;5072085;28;20550;-46
2023/12/23 04:42:28;;;;;;;0.00;0.00;;;24.50;54.40;;;;;;5070107;28;20537;-44
2023/12/23 04:44:59;;;;;;;0.00;0.00;;;24.50;54.50;;;;;;5071820;28;20311;-44
2023/12/23 04:47:30;;;;;;;0.00;0.00;;;24.50;54.60;;;;;;5071614;28;20264;-47
2023/12/23 04:50:03;;;;;;;0.00;0.00;;;24.50;54.60;;;;;;5072162;28;20599;-46
2023/12/23 04:52:34;;;;;;;0.00;0.00;;;24.50;54.60;;;;;;5072196;28;20575;-46
2023/12/23 04:55:09;;;;;;;0.00;0.00;;;24.50;54.70;;;;;;5072152;28;20541;-47
2023/12/23 04:57:40;;;;;;;0.00;0.00;;;24.50;54.70;;;;;;5071983;28;20194;-44
2023/12/23 05:00:12;;;;;;;0.00;0.00;;;24.50;54.60;;;;;;5071704;28;20505;-47
2023/12/23 05:02:44;;;;;;;0.00;0.00;;;24.50;54.70;;;;;;5071509;28;20194;-46
2023/12/23 05:05:15;;;;;;;0.00;0.00;;;24.50;54.70;;;;;;5069664;28;20199;-43
2023/12/23 05:07:47;;;;;;;0.03;0.03;;;24.50;54.70;;;;;;5071800;28;20554;-44
2023/12/23 05:10:20;;;;;;;0.00;0.00;;;24.50;54.70;;;;;;5071572;28;20531;-46
2023/12/23 05:12:52;;;;;;;0.00;0.00;;;24.50;54.70;;;;;;5051703;28;20312;-46
2023/12/23 05:15:23;;;;;;;0.00;0.00;;;24.50;54.60;;;;;;5051942;28;20580;-45
2023/12/23 05:17:54;;;;;;;0.00;0.00;;;24.50;54.60;;;;;;5052034;28;20551;-47
2023/12/23 05:20:26;;;;;;;0.00;0.00;;;24.50;54.60;;;;;;5051982;28;20554;-46
2023/12/23 05:22:57;;;;;;;0.00;0.00;;;24.50;54.60;;;;;;5051899;28;20296;-44
2023/12/23 05:25:30;;;;;;;0.00;0.00;;;24.50;54.60;;;;;;5051597;28;20294;-46
2023/12/23 05:28:02;;;;;;;0.00;0.00;;;24.50;54.70;;;;;;5051569;28;20195;-47
2023/12/23 05:30:33;;;;;;;0.00;0.00;;;24.50;54.70;;;;;;5051505;28;20225;-45
2023/12/23 05:33:05;;;;;;;0.05;0.05;;;24.50;54.70;;;;;;5052106;28;20241;-49
2023/12/23 05:35:36;;;;;;;0.00;0.00;;;24.50;54.70;;;;;;5051931;28;20282;-41
2023/12/23 05:38:08;;;;;;;0.00;0.00;;;24.50;54.70;;;;;;5064100;28;20216;-43
2023/12/23 05:40:41;;;;;;;0.00;0.00;;;24.50;54.70;;;;;;5071708;28;20190;-46
2023/12/23 05:43:13;;;;;;;0.00;0.00;;;24.50;55.30;;;;;;5071622;28;20597;-53
2023/12/23 05:45:44;;;;;;;0.00;0.00;;;24.50;54.60;;;;;;5071118;28;20229;-47
2023/12/23 05:48:15;;;;;;;0.00;0.00;;;24.50;54.60;;;;;;5070939;28;20241;-47
2023/12/23 05:50:47;;;;;;;0.00;0.00;;;24.40;54.60;;;;;;5071499;28;20195;-47
2023/12/23 05:53:18;;;;;;;0.00;0.00;;;24.40;54.60;;;;;;5070981;28;20256;-45
2023/12/23 05:55:52;;;;;;;0.00;0.00;;;24.40;54.60;;;;;;5071397;28;20274;-43
2023/12/23 05:58:23;;;;;;;0.10;0.10;;;24.40;54.60;;;;;;5071640;28;20274;-47
2023/12/23 06:00:55;;;;;;;0.00;0.00;;;24.40;54.60;;;;;;5071652;28;20194;-48
2023/12/23 06:03:26;;;;;;;0.00;0.00;;;24.40;54.60;;;;;;5071379;28;20191;-47
2023/12/23 06:05:57;;;;;;;0.00;0.00;;;24.40;54.60;;;;;;5071253;28;20214;-45
2023/12/23 06:08:29;;;;;;;0.00;0.00;;;24.40;54.60;;;;;;5070997;28;20273;-47
2023/12/23 06:11:02;;;;;;;0.00;0.00;;;24.40;54.60;;;;;;5071255;28;20240;-44
2023/12/23 06:13:34;;;;;;;0.00;0.00;;;24.40;54.60;;;;;;5071382;28;20265;-44
2023/12/23 06:16:09;;;;;;;0.00;0.00;;;24.30;54.60;;;;;;5071289;28;20211;-46
2023/12/23 06:18:40;;;;;;;0.05;0.05;;;24.30;54.60;;;;;;5071045;28;20261;-45
2023/12/23 06:21:12;;;;;;;0.00;0.00;;;24.30;54.50;;;;;;5071062;28;20260;-47
2023/12/23 06:23:43;;;;;;;0.00;0.00;;;24.30;54.50;;;;;;5071182;28;20614;-45
2023/12/23 06:26:17;;;;;;;0.00;0.00;;;24.30;54.50;;;;;;5071291;28;20547;-46
2023/12/23 06:28:48;;;;;;;0.00;0.00;;;24.30;54.50;;;;;;5071283;28;20552;-47
2023/12/23 06:31:20;;;;;;;0.00;0.00;;;24.30;54.50;;;;;;5070968;28;20203;-45
2023/12/23 06:33:49;;;;;;;0.00;0.00;;;24.30;54.60;;;;;;5070325;28;20570;-45
2023/12/23 06:36:21;;;;;;;0.03;0.03;;;24.30;54.50;;;;;;5070793;28;20660;-47
2023/12/23 06:38:52;;;;;;;0.10;0.10;;;24.30;54.50;;;;;;5070881;28;20270;-46
2023/12/23 06:41:26;;;;;;;0.00;0.00;;;24.30;54.60;;;;;;5072355;28;20264;-46
2023/12/23 06:43:57;;;;;;;0.00;0.00;;;24.30;54.60;;;;;;5074429;28;20578;-47
2023/12/23 06:46:28;;;;;;;0.10;0.10;;;24.30;54.60;;;;;;5074712;28;20543;-47
2023/12/23 06:49:00;;;;;;;0.00;0.00;;;24.20;54.60;;;;;;5074663;28;20549;-43
2023/12/23 06:51:31;;;;;;;0.00;0.00;;;24.20;54.50;;;;;;5074536;28;20515;-43
2023/12/23 06:54:03;;;;;;;0.05;0.05;;;24.20;54.60;;;;;;5074666;28;20306;-49
2023/12/23 06:56:36;;;;;;;0.00;0.00;;;24.20;54.60;;;;;;5074142;28;20605;-45
2023/12/23 06:59:09;;;;;;;0.00;0.00;;;24.20;54.60;;;;;;5074161;28;20550;-44
2023/12/23 07:01:41;;;;;;;0.00;0.00;;;24.20;54.50;;;;;;5074641;28;20570;-43
2023/12/23 07:04:13;;;;;;;0.00;0.00;;;24.20;54.60;;;;;;5073915;28;20202;-44
2023/12/23 07:06:44;;;;;;;0.00;0.00;;;24.20;54.60;;;;;;5073753;28;20552;-45
2023/12/23 07:09:16;;;;;;;0.00;0.00;;;24.20;54.60;;;;;;5070923;28;20538;-44
2023/12/23 07:11:50;;;;;;;0.00;0.00;;;24.20;54.60;;;;;;5074158;28;20559;-46
2023/12/23 07:14:21;;;;;;;0.00;0.00;;;24.20;54.60;;;;;;5074029;28;20550;-45
2023/12/23 07:16:52;;;;;;;0.00;0.00;;;24.20;54.60;;;;;;5073559;28;20595;-44
2023/12/23 07:19:23;;;;;;;0.00;0.00;;;24.20;54.60;;;;;;5073484;28;20268;-46
2023/12/23 07:21:54;;;;;;;0.00;0.00;;;24.20;54.60;;;;;;5073787;28;20190;-42
2023/12/23 07:24:25;;;;;;;0.00;0.00;;;24.10;54.60;;;;;;5073681;28;20211;-47
2023/12/23 07:26:58;;;;;;;0.00;0.00;;;24.10;54.60;;;;;;5073787;28;20201;-46
2023/12/23 07:29:35;;;;;;;0.00;0.00;;;24.10;54.60;;;;;;5074057;28;20222;-47
2023/12/23 07:32:06;;;;;;;0.00;0.00;;;24.10;54.60;;;;;;5073630;28;20206;-46
2023/12/23 07:34:36;;;;;;;0.00;0.00;;;24.10;54.60;;;;;;5073479;28;20580;-44
2023/12/23 07:37:07;;;;;;;0.00;0.00;;;24.10;54.60;;;;;;5073366;28;20198;-47
2023/12/23 07:39:38;;;;;;;0.00;0.00;;;24.10;54.60;;;;;;5073568;28;20199;-46
2023/12/23 07:42:12;;;;;;;0.10;0.10;;;24.10;54.60;;;;;;5073333;28;20206;-46
2023/12/23 07:44:43;;;;;;;0.00;0.00;;;24.10;54.60;;;;;;5073496;28;20226;-46
2023/12/23 07:47:14;;;;;;;0.00;0.00;;;24.10;54.60;;;;;;5073329;28;20194;-46
2023/12/23 07:49:45;;;;;;;0.00;0.00;;;24.00;54.60;;;;;;5072746;28;20187;-46
2023/12/23 07:52:15;;;;;;;0.00;0.00;;;24.00;54.60;;;;;;5071976;28;20207;-48
2023/12/23 07:54:46;;;;;;;0.00;0.00;;;24.00;54.60;;;;;;5072809;28;20214;-47
2023/12/23 07:57:19;;;;;;;0.00;0.00;;;24.00;54.60;;;;;;5072990;28;20206;-45
2023/12/23 07:59:49;;;;;;;0.00;0.00;;;24.00;54.60;;;;;;5073242;28;20231;-46
2023/12/23 08:02:20;;;;;;;0.10;0.10;;;24.00;54.60;;;;;;5073270;28;20195;-47
2023/12/23 08:04:51;;;;;;;0.00;0.00;;;24.00;54.60;;;;;;5073051;28;20226;-47
2023/12/23 08:07:22;;;;;;;0.00;0.00;;;24.00;54.60;;;;;;5072763;28;20203;-45
2023/12/23 08:09:53;;;;;;;0.00;0.00;;;24.00;54.60;;;;;;5073106;28;20199;-48
2023/12/23 08:12:25;;;;;;;0.00;0.00;;;23.90;54.50;;;;;;5072405;28;20202;-47
2023/12/23 08:14:56;;;;;;;0.00;0.00;;;23.90;54.50;;;;;;5072773;28;20219;-46
2023/12/23 08:17:27;;;;;;;0.00;0.00;;;23.90;54.50;;;;;;5073067;28;20260;-45
2023/12/23 08:19:57;;;;;;;0.00;0.00;;;23.90;54.50;;;;;;5072639;28;20198;-45
2023/12/23 08:22:28;;;;;;;0.00;0.00;;;23.90;54.50;;;;;;5072860;28;20194;-47
2023/12/23 08:24:59;;;;;;;0.00;0.00;;;23.90;54.50;;;;;;5071782;28;20217;-44
2023/12/23 08:27:31;;;;;;;0.00;0.00;;;23.90;54.50;;;;;;5052584;28;20199;-45
2023/12/23 08:30:02;;;;;;;0.03;0.03;;;23.90;54.50;;;;;;5069204;28;20187;-47
2023/12/23 08:32:33;;;;;;;0.00;0.00;;;23.90;54.50;;;;;;5072739;28;20190;-45
2023/12/23 08:35:05;;;;;;;0.00;0.00;;;23.90;54.50;;;;;;5072619;28;20229;-45
2023/12/23 08:37:35;;;;;;;0.00;0.00;;;23.80;54.50;;;;;;5072028;28;20206;-44
2023/12/23 08:40:07;;;;;;;0.00;0.00;;;23.80;54.50;;;;;;5072292;28;20205;-45
2023/12/23 08:42:39;;;;;;;0.00;0.00;;;23.90;54.60;;;;;;5072260;28;20234;-46
2023/12/23 08:45:11;;;;;;;0.10;0.10;;;23.80;54.50;;;;;;5072203;28;20242;-44
2023/12/23 08:47:42;;;;;;;0.10;0.10;;;23.80;54.50;;;;;;5071901;28;20187;-46
2023/12/23 08:50:13;;;;;;;0.00;0.00;;;23.80;54.50;;;;;;5072039;28;20252;-44
2023/12/23 08:52:44;;;;;;;0.00;0.00;;;23.80;54.50;;;;;;5072062;28;20198;-45
2023/12/23 08:55:14;;;;;;;0.00;0.00;;;23.80;54.60;;;;;;5072155;28;20223;-46
2023/12/23 08:57:47;;;;;;;0.10;0.10;;;23.80;54.50;;;;;;5072011;28;20201;-42
2023/12/23 09:00:18;;;;;;;0.00;0.00;;;23.80;54.60;;;;;;5072042;28;20234;-45
2023/12/23 09:02:49;;;;;;;0.00;0.00;;;23.70;54.50;;;;;;5072227;28;20203;-47
2023/12/23 09:05:20;;;;;;;0.00;0.00;;;23.70;54.50;;;;;;5071305;28;20233;-44
2023/12/23 09:07:51;;;;;;;0.00;0.00;;;23.70;54.50;;;;;;5071701;28;20198;-48
2023/12/23 09:10:22;;;;;;;0.10;0.10;;;23.70;54.50;;;;;;5071735;28;20194;-46
2023/12/23 09:12:55;;;;;;;0.00;0.00;;;23.70;54.50;;;;;;5071240;28;20250;-48
2023/12/23 09:15:25;;;;;;;0.00;0.00;;;23.70;54.50;;;;;;5071791;28;20223;-50
2023/12/23 09:17:56;;;;;;;0.10;0.10;;;23.70;54.50;;;;;;5071816;28;20669;-47
2023/12/23 09:20:28;;;;;;;0.03;0.03;;;23.70;54.50;;;;;;5071756;28;20195;-49
2023/12/23 09:22:59;;;;;;;0.00;0.00;;;23.70;54.60;;;;;;5071549;28;20234;-45
2023/12/23 09:25:29;;;;;;;0.00;0.00;;;23.70;54.60;;;;;;5071696;28;20215;-49
2023/12/23 09:28:02;;;;;;;0.00;0.00;;;23.70;54.60;;;;;;5071523;28;20252;-43
2023/12/23 09:30:33;;;;;;;0.00;0.00;;;23.70;54.60;;;;;;5071758;28;20214;-47
2023/12/23 09:33:05;;;;;;;0.00;0.00;;;23.60;54.50;;;;;;5071090;28;20226;-46
2023/12/23 09:35:36;;;;;;;0.00;0.00;;;23.60;54.50;;;;;;5071180;28;20555;-46
2023/12/23 09:38:07;;;;;;;0.00;0.00;;;23.60;54.40;;;;;;5070977;28;20195;-46
2023/12/23 09:40:38;;;;;;;0.00;0.00;;;23.60;54.40;;;;;;5071112;28;20190;-43
2023/12/23 09:43:10;;;;;;;0.00;0.00;;;23.60;54.40;;;;;;5070830;28;20194;-46
2023/12/23 09:45:42;;;;;;;0.00;0.00;;;23.60;54.40;;;;;;5071700;28;20225;-46
2023/12/23 09:48:13;;;;;;;0.03;0.03;;;23.50;54.30;;;;;;5071461;28;20198;-47
2023/12/23 09:50:44;;;;;;;0.10;0.10;;;23.60;54.40;;;;;;5071334;28;20202;-44
2023/12/23 09:53:16;;;;;;;0.00;0.00;;;23.60;54.40;;;;;;5071292;28;20214;-45
2023/12/23 09:55:47;;;;;;;0.00;0.00;;;23.50;54.30;;;;;;5071308;28;20242;-46
2023/12/23 09:58:20;;;;;;;0.00;0.00;;;23.50;54.30;;;;;;5071107;28;20194;-46
2023/12/23 10:00:50;;;;;;;0.00;0.00;;;23.50;54.30;;;;;;5071340;28;20194;-46
2023/12/23 10:03:24;;;;;;;0.00;0.00;;;23.50;54.30;;;;;;5071325;28;20191;-47
2023/12/23 10:05:56;;;;;;;0.00;0.00;;;23.50;54.40;;;;;;5071266;28;20211;-47
2023/12/23 10:08:27;;;;;;;0.10;0.10;;;23.50;54.30;;;;;;5071292;28;20203;-46
2023/12/23 10:10:57;;;;;;;0.00;0.00;;;23.50;54.30;;;;;;5071132;28;20202;-45
2023/12/23 10:13:30;;;;;;;0.00;0.00;;;23.50;54.30;;;;;;5070557;28;20235;-46
2023/12/23 10:16:01;;;;;;;0.00;0.00;;;23.50;54.30;;;;;;5071873;28;20218;-45
2023/12/23 10:18:33;;;;;;;0.00;0.00;;;23.50;54.30;;;;;;5075046;28;20194;-41
2023/12/23 10:21:03;;;;;;;0.00;0.00;;;23.50;54.30;;;;;;5074963;28;20191;-45
2023/12/23 10:23:35;;;;;;;0.00;0.00;;;23.50;54.30;;;;;;5074557;28;20225;-47
2023/12/23 10:26:07;;;;;;;0.00;0.00;;;23.50;54.20;;;;;;5074772;28;20226;-48
2023/12/23 10:28:41;;;;;;;0.00;0.00;;;23.50;54.20;;;;;;5074270;28;20533;-47
2023/12/23 10:31:15;;;;;;;0.00;0.00;;;23.40;54.10;;;;;;5055289;28;20215;-47
2023/12/23 10:33:52;;;;;;;0.00;0.00;;;23.40;54.10;;;;;;5070758;28;20226;-45
2023/12/23 10:36:23;;;;;;;0.00;0.00;;;23.40;54.10;;;;;;5074745;28;20589;-44
2023/12/23 10:39:03;;;;;;;0.00;0.00;;;23.40;54.10;;;;;;5074556;28;20195;-46
2023/12/23 10:41:48;;;;;;;0.00;0.00;;;23.40;54.10;;;;;;5074339;28;20216;-48
2023/12/23 10:44:21;;;;;;;0.00;0.00;;;23.40;54.10;;;;;;5074028;28;20194;-44
2023/12/23 10:46:55;;;;;;;0.00;0.00;;;23.40;54.10;;;;;;5074679;28;20289;-48
2023/12/23 10:49:28;;;;;;;0.00;0.00;;;23.40;54.10;;;;;;5074312;28;20273;-43
2023/12/23 10:52:00;;;;;;;0.00;0.00;;;23.30;54.10;;;;;;5073929;28;20195;-47
2023/12/23 10:54:32;;;;;;;0.00;0.00;;;23.30;54.10;;;;;;5074121;28;20591;-47
2023/12/23 10:57:03;;;;;;;0.00;0.00;;;23.40;54.10;;;;;;5074128;28;20209;-47
2023/12/23 10:59:36;;;;;;;0.03;0.03;;;23.30;54.10;;;;;;5073802;28;20195;-46
2023/12/23 11:02:14;;;;;;;0.10;0.10;;;23.30;54.10;;;;;;5074212;28;20195;-44
2023/12/23 11:04:47;;;;;;;0.00;0.00;;;23.30;54.10;;;;;;5074257;28;20271;-46
2023/12/23 11:07:20;;;;;;;0.10;0.10;;;23.30;54.10;;;;;;5073925;28;20565;-47
2023/12/23 11:09:52;;;;;;;0.00;0.00;;;23.30;54.10;;;;;;5074166;28;20195;-47
2023/12/23 11:12:23;;;;;;;0.00;0.00;;;23.30;54.10;;;;;;5073826;28;20562;-46
2023/12/23 11:14:56;;;;;;;0.00;0.00;;;23.30;54.10;;;;;;5072443;28;20222;-45
2023/12/23 11:17:28;;;;;;;0.10;0.10;;;23.30;54.00;;;;;;5073919;28;20195;-48
2023/12/23 11:20:03;;;;;;;0.00;0.00;;;23.30;54.00;;;;;;5073024;28;20265;-47
2023/12/23 11:22:41;;;;;;;0.03;0.03;;;23.30;54.00;;;;;;5073822;28;20243;-47
2023/12/23 11:25:41;;;;;;;0.10;0.10;;;23.20;54.00;;;;;;5073466;28;20264;-44
2023/12/23 11:28:14;;;;;;;0.00;0.00;;;23.20;53.90;;;;;;5072296;28;20199;-46
2023/12/23 11:30:52;;;;;;;0.10;0.10;;;23.20;53.90;;;;;;5073980;28;20547;-49
2023/12/23 11:33:23;;;;;;;0.00;0.00;;;23.20;53.90;;;;;;5073222;28;20210;-46
2023/12/23 11:35:55;;;;;;;0.00;0.00;;;23.20;53.90;;;;;;5073443;28;20683;-46
2023/12/23 11:38:28;;;;;;;0.10;0.10;;;23.20;54.00;;;;;;5073586;28;20209;-46
2023/12/23 11:40:59;;;;;;;0.00;0.00;;;23.10;53.90;;;;;;5073525;28;20654;-47
2023/12/23 11:43:30;;;;;;;0.00;0.00;;;23.20;54.00;;;;;;5073482;28;20202;-47
2023/12/23 11:46:03;;;;;;;0.00;0.00;;;23.20;54.00;;;;;;5073428;28;20219;-48
2023/12/23 11:48:34;;;;;;;0.00;0.00;;;23.10;54.00;;;;;;5073262;28;20183;-46
2023/12/23 11:51:06;;;;;;;0.00;0.00;;;23.10;53.90;;;;;;5073625;28;20573;-47
2023/12/23 11:53:37;;;;;;;0.00;0.00;;;23.10;54.00;;;;;;5073578;28;20593;-45
2023/12/23 11:56:10;;;;;;;0.00;0.00;;;23.10;53.90;;;;;;5073591;28;20301;-46
2023/12/23 11:58:41;;;;;;;0.00;0.00;;;23.10;53.90;;;;;;5072985;28;20191;-43
2023/12/23 12:01:14;;;;;;;0.00;0.00;;;23.10;53.90;;;;;;5073349;28;20195;-46
2023/12/23 12:03:45;;;;;;;0.00;0.00;;;23.10;53.90;;;;;;5073286;28;20199;-47
2023/12/23 12:06:15;;;;;;;0.00;0.00;;;23.10;53.90;;;;;;5073049;28;20588;-45
2023/12/23 12:08:46;;;;;;;0.10;0.10;;;23.10;53.90;;;;;;5072770;28;20195;-47
2023/12/23 12:11:17;;;;;;;0.00;0.00;;;23.10;53.80;;;;;;5072975;28;20647;-45
2023/12/23 12:13:49;;;;;;;0.08;0.08;;;23.10;53.80;;;;;;5072795;28;20222;-47
2023/12/23 12:16:22;;;;;;;0.00;0.00;;;23.10;53.80;;;;;;5072533;28;20226;-45
2023/12/23 12:18:53;;;;;;;0.00;0.00;;;23.00;53.80;;;;;;5072681;28;20600;-46
2023/12/23 12:21:23;;;;;;;0.00;0.00;;;23.00;53.80;;;;;;5072841;28;20674;-46
2023/12/23 12:23:57;;;;;;;0.10;0.10;;;23.00;53.80;;;;;;5072729;28;20623;-46
2023/12/23 12:26:28;;;;;;;0.00;0.00;;;23.00;53.80;;;;;;5072353;28;20297;-46
2023/12/23 12:29:00;;;;;;;0.00;0.00;;;23.00;53.80;;;;;;5071862;28;20191;-46
2023/12/23 12:31:33;;;;;;;0.00;0.00;;;23.00;53.80;;;;;;5072924;28;20198;-43
2023/12/23 12:34:03;;;;;;;0.00;0.00;;;23.00;53.80;;;;;;5072474;28;20675;-45
2023/12/23 12:36:34;;;;;;;0.00;0.00;;;23.00;53.80;;;;;;5072640;28;20195;-45
2023/12/23 12:39:05;;;;;;;0.10;0.10;;;23.00;53.80;;;;;;5071704;28;20198;-44
2023/12/23 12:41:37;;;;;;;0.00;0.00;;;23.00;53.80;;;;;;5072237;28;20199;-44
2023/12/23 12:44:08;;;;;;;0.10;0.10;;;23.00;53.80;;;;;;5072401;28;20226;-44
2023/12/23 12:46:40;;;;;;;0.00;0.00;;;22.90;53.70;;;;;;5072428;28;20198;-47
2023/12/23 12:49:12;;;;;;;0.10;0.10;;;22.90;53.70;;;;;;5072118;28;20202;-46
2023/12/23 12:51:43;;;;;;;0.00;0.00;;;22.90;53.70;;;;;;5071834;28;20663;-47
2023/12/23 12:54:14;;;;;;;0.10;0.10;;;23.00;53.80;;;;;;5071565;28;20229;-47
2023/12/23 12:56:45;;;;;;;0.00;0.00;;;22.90;53.70;;;;;;5072090;28;20560;-42
2023/12/23 12:59:16;;;;;;;0.00;0.00;;;22.90;53.70;;;;;;5071836;28;20205;-44
2023/12/23 13:01:48;;;;;;;0.10;0.10;;;22.90;53.70;;;;;;5072101;28;20221;-46
2023/12/23 13:04:19;;;;;;;0.00;0.00;;;22.90;53.70;;;;;;5071897;28;20202;-45
2023/12/23 13:06:50;;;;;;;0.08;0.08;;;22.90;53.70;;;;;;5072107;28;20206;-46
2023/12/23 13:09:21;;;;;;;0.00;0.00;;;22.90;53.70;;;;;;5071518;28;20659;-47
2023/12/23 13:11:52;;;;;;;0.00;0.00;;;22.80;53.70;;;;;;5071843;28;20662;-47